Time;durP1;ratioP1;P1;durP2;ratioP2;P2;SDS_P1;SDS_P2;PMS_P1;PMS_P2;Temp;Humidity;BMP_temperature;BMP_pressure;BME280_temperature;BME280_humidity;BME280_pressure;Samples;Min_cycle;Max_cycle;Signal;HPM_P1;HPM_P2
2021/06/17 00:01:21;;;;;;;8.07;5.15;;;;;;;;;;4945818;28;21282;-58
2021/06/17 00:03:49;;;;;;;11.60;4.80;;;;;;;;;;4945411;28;20041;-58
2021/06/17 00:06:17;;;;;;;9.20;4.88;;;;;;;;;;4928355;28;20030;-57
2021/06/17 00:08:45;;;;;;;11.00;4.63;;;;;;;;;;4945919;28;20026;-57
2021/06/17 00:11:31;;;;;;;6.20;4.70;;;;;;;;;;4944792;28;20101;-57
2021/06/17 00:14:18;;;;;;;12.95;5.05;;;;;;;;;;4944727;28;20357;-57
2021/06/17 00:17:04;;;;;;;7.07;5.35;;;;;;;;;;4943419;28;20062;-57
2021/06/17 00:19:54;;;;;;;7.35;5.00;;;;;;;;;;4944641;28;20050;-57
2021/06/17 00:22:44;;;;;;;13.25;5.05;;;;;;;;;;4942605;28;20113;-56
2021/06/17 00:25:29;;;;;;;7.97;5.07;;;;;;;;;;4945909;28;20050;-57
2021/06/17 00:28:13;;;;;;;8.48;5.10;;;;;;;;;;4948061;28;20045;-57
2021/06/17 00:30:59;;;;;;;8.00;4.97;;;;;;;;;;4947115;28;20045;-57
2021/06/17 00:33:46;;;;;;;10.18;4.97;;;;;;;;;;4943786;28;20105;-57
2021/06/17 00:36:32;;;;;;;10.55;6.20;;;;;;;;;;4949679;28;20668;-57
2021/06/17 00:39:19;;;;;;;7.95;5.30;;;;;;;;;;4919310;28;20090;-57
2021/06/17 00:42:04;;;;;;;7.95;5.53;;;;;;;;;;4944595;28;20082;-57
2021/06/17 00:44:50;;;;;;;10.32;5.70;;;;;;;;;;4944637;28;20046;-56
2021/06/17 00:47:34;;;;;;;12.60;6.32;;;;;;;;;;4914769;28;20727;-57
2021/06/17 00:50:19;;;;;;;11.35;5.80;;;;;;;;;;4942404;28;20516;-57
2021/06/17 00:53:05;;;;;;;12.75;6.28;;;;;;;;;;4943977;28;20066;-58
2021/06/17 00:55:52;;;;;;;9.73;5.53;;;;;;;;;;4933881;28;20077;-58
2021/06/17 00:58:38;;;;;;;9.48;5.93;;;;;;;;;;4943040;28;20086;-58
2021/06/17 01:01:25;;;;;;;10.23;6.28;;;;;;;;;;4933570;28;20109;-58
2021/06/17 01:04:09;;;;;;;10.90;5.75;;;;;;;;;;4934645;28;20510;-58
2021/06/17 01:06:53;;;;;;;9.65;6.82;;;;;;;;;;4942151;28;20049;-57
2021/06/17 01:09:37;;;;;;;9.55;6.05;;;;;;;;;;4942173;28;20050;-57
2021/06/17 01:12:24;;;;;;;9.32;6.10;;;;;;;;;;4946014;28;20438;-59
2021/06/17 01:15:14;;;;;;;12.05;6.20;;;;;;;;;;4932313;28;20193;-58
2021/06/17 01:18:01;;;;;;;8.98;6.05;;;;;;;;;;4943416;28;20450;-58
2021/06/17 01:20:56;;;;;;;11.10;6.28;;;;;;;;;;4942559;28;20062;-58
2021/06/17 01:23:49;;;;;;;8.20;6.65;;;;;;;;;;4944331;28;20051;-58
2021/06/17 01:26:51;;;;;;;12.13;6.53;;;;;;;;;;4948194;28;20050;-57
2021/06/17 01:29:42;;;;;;;14.88;7.43;;;;;;;;;;4938316;28;20050;-57
2021/06/17 01:32:27;;;;;;;12.13;6.68;;;;;;;;;;4946822;28;20054;-57
2021/06/17 01:35:12;;;;;;;11.90;8.18;;;;;;;;;;4945725;28;20580;-58
2021/06/17 01:37:57;;;;;;;11.73;7.18;;;;;;;;;;4948971;28;20700;-58
2021/06/17 01:40:43;;;;;;;16.00;7.63;;;;;;;;;;4946960;28;20097;-58
2021/06/17 01:43:27;;;;;;;11.68;7.43;;;;;;;;;;4930591;28;20167;-58
2021/06/17 01:46:14;;;;;;;13.65;7.70;;;;;;;;;;4947255;28;20041;-57
2021/06/17 01:49:02;;;;;;;15.50;9.02;;;;;;;;;;4946007;28;20042;-57
2021/06/17 01:51:50;;;;;;;11.82;7.45;;;;;;;;;;4946395;28;20128;-56
2021/06/17 01:54:37;;;;;;;11.52;7.13;;;;;;;;;;4949003;28;20870;-58
2021/06/17 01:57:21;;;;;;;14.27;7.50;;;;;;;;;;4947193;28;20544;-57
2021/06/17 02:00:06;;;;;;;12.95;8.48;;;;;;;;;;4947103;28;20046;-57
2021/06/17 02:02:51;;;;;;;12.85;6.93;;;;;;;;;;4945321;28;20130;-57
2021/06/17 02:05:36;;;;;;;10.82;7.93;;;;;;;;;;4952827;28;20120;-56
2021/06/17 02:08:27;;;;;;;14.23;8.75;;;;;;;;;;4930041;28;20128;-57
2021/06/17 02:10:58;;;;;;;13.35;8.48;;;;;;;;;;4933684;28;20031;-56
2021/06/17 02:13:23;;;;;;;13.57;8.82;;;;;;;;;;4929172;28;20067;-58
2021/06/17 02:15:53;;;;;;;12.57;8.43;;;;;;;;;;4943774;28;20347;-57
2021/06/17 02:18:24;;;;;;;14.43;7.78;;;;;;;;;;4946214;28;20035;-58
2021/06/17 02:20:55;;;;;;;11.15;9.00;;;;;;;;;;4930064;28;20073;-57
2021/06/17 02:23:21;;;;;;;18.65;9.25;;;;;;;;;;4945402;28;20497;-56
2021/06/17 02:25:51;;;;;;;12.35;8.55;;;;;;;;;;4947438;28;20106;-57
2021/06/17 02:28:21;;;;;;;13.38;8.60;;;;;;;;;;4945502;28;20038;-58
2021/06/17 02:30:52;;;;;;;12.30;9.02;;;;;;;;;;4934302;28;20043;-58
2021/06/17 02:33:23;;;;;;;21.73;9.82;;;;;;;;;;4946386;28;20030;-58
2021/06/17 02:35:53;;;;;;;13.30;9.35;;;;;;;;;;4915745;28;20035;-57
2021/06/17 02:38:21;;;;;;;16.52;10.10;;;;;;;;;;4944352;28;20031;-56
2021/06/17 02:40:47;;;;;;;17.00;10.73;;;;;;;;;;4921649;28;20077;-57
2021/06/17 02:43:16;;;;;;;14.90;9.40;;;;;;;;;;4946862;28;20030;-57
2021/06/17 02:45:47;;;;;;;14.13;9.82;;;;;;;;;;4929571;28;20022;-58
2021/06/17 02:48:13;;;;;;;22.20;11.02;;;;;;;;;;4943830;28;20119;-58
2021/06/17 02:50:41;;;;;;;14.55;10.25;;;;;;;;;;4945143;28;20058;-57
2021/06/17 02:53:11;;;;;;;17.63;10.75;;;;;;;;;;4930754;28;20030;-57
2021/06/17 02:55:40;;;;;;;18.88;11.48;;;;;;;;;;4946885;28;22272;-57
2021/06/17 02:58:15;;;;;;;23.13;11.15;;;;;;;;;;4933421;28;21037;-58
2021/06/17 03:00:46;;;;;;;20.70;12.52;;;;;;;;;;4946311;28;20038;-57
2021/06/17 03:03:19;;;;;;;18.85;11.23;;;;;;;;;;4944096;28;20042;-58
2021/06/17 03:05:55;;;;;;;16.05;10.85;;;;;;;;;;4945214;28;20038;-56
2021/06/17 03:08:40;;;;;;;23.00;11.30;;;;;;;;;;4928570;28;20038;-57
2021/06/17 03:11:09;;;;;;;17.63;11.65;;;;;;;;;;4944826;28;20030;-57
2021/06/17 03:13:40;;;;;;;18.95;11.30;;;;;;;;;;4944898;28;20046;-57
2021/06/17 03:16:08;;;;;;;21.83;11.15;;;;;;;;;;4943350;28;20495;-59
2021/06/17 03:18:37;;;;;;;15.85;11.68;;;;;;;;;;4943995;28;20023;-57
2021/06/17 03:21:14;;;;;;;17.35;11.00;;;;;;;;;;4945004;28;20039;-57
2021/06/17 03:23:44;;;;;;;15.65;11.68;;;;;;;;;;4946520;28;20031;-57
2021/06/17 03:26:14;;;;;;;24.67;11.73;;;;;;;;;;4945778;28;20035;-57
2021/06/17 03:28:40;;;;;;;16.95;10.98;;;;;;;;;;4943669;28;20027;-58
2021/06/17 03:31:07;;;;;;;19.10;11.45;;;;;;;;;;4945358;28;20565;-58
2021/06/17 03:33:34;;;;;;;17.58;11.27;;;;;;;;;;4944429;28;21383;-58
2021/06/17 03:36:00;;;;;;;19.85;11.45;;;;;;;;;;4939813;28;20582;-57
2021/06/17 03:38:26;;;;;;;18.30;11.43;;;;;;;;;;4945531;28;20540;-59
2021/06/17 03:40:53;;;;;;;16.70;11.38;;;;;;;;;;4945273;28;20046;-58
2021/06/17 03:43:20;;;;;;;15.18;10.40;;;;;;;;;;4943125;28;20864;-59
2021/06/17 03:45:47;;;;;;;16.50;11.00;;;;;;;;;;4910786;28;20478;-57
2021/06/17 03:48:16;;;;;;;19.67;10.80;;;;;;;;;;4942527;28;20035;-56
2021/06/17 03:50:42;;;;;;;17.63;11.65;;;;;;;;;;4944176;28;20129;-57
2021/06/17 03:53:08;;;;;;;16.70;10.77;;;;;;;;;;4943989;28;20026;-59
2021/06/17 03:55:42;;;;;;;16.95;10.70;;;;;;;;;;4923008;28;20054;-58
2021/06/17 03:58:08;;;;;;;17.05;10.20;;;;;;;;;;4943196;28;20955;-60
2021/06/17 04:00:36;;;;;;;12.13;9.65;;;;;;;;;;4941540;28;20031;-57
2021/06/17 04:03:11;;;;;;;15.35;10.55;;;;;;;;;;4937990;28;20031;-58
2021/06/17 04:05:37;;;;;;;14.77;10.55;;;;;;;;;;4938479;28;20138;-60
2021/06/17 04:08:05;;;;;;;12.20;9.35;;;;;;;;;;4918378;28;20047;-59
2021/06/17 04:10:36;;;;;;;20.13;11.25;;;;;;;;;;4935489;28;20636;-58
2021/06/17 04:13:02;;;;;;;14.88;9.70;;;;;;;;;;4926545;28;20058;-58
2021/06/17 04:15:29;;;;;;;23.48;11.40;;;;;;;;;;4941696;28;20031;-57
2021/06/17 04:18:01;;;;;;;13.75;9.80;;;;;;;;;;4941782;28;20133;-57
2021/06/17 04:20:29;;;;;;;15.10;9.68;;;;;;;;;;4943058;28;20035;-58
2021/06/17 04:23:00;;;;;;;15.52;10.77;;;;;;;;;;4944669;28;20066;-57
2021/06/17 04:25:25;;;;;;;19.88;9.48;;;;;;;;;;4943368;28;20077;-58
2021/06/17 04:27:52;;;;;;;13.93;9.52;;;;;;;;;;4942292;28;20067;-59
2021/06/17 04:30:25;;;;;;;16.73;9.70;;;;;;;;;;4925162;28;20042;-58
2021/06/17 04:32:50;;;;;;;12.27;8.45;;;;;;;;;;4944688;28;20039;-58
2021/06/17 04:35:19;;;;;;;17.27;9.23;;;;;;;;;;4943152;28;20078;-57
2021/06/17 04:37:51;;;;;;;12.38;8.27;;;;;;;;;;4943887;28;20031;-59
2021/06/17 04:40:20;;;;;;;12.07;8.70;;;;;;;;;;4936426;28;20098;-57
2021/06/17 04:42:53;;;;;;;10.82;8.35;;;;;;;;;;4938311;28;20034;-58
2021/06/17 04:45:24;;;;;;;11.80;9.35;;;;;;;;;;4934826;28;20031;-59
2021/06/17 04:47:55;;;;;;;12.15;8.10;;;;;;;;;;4916525;28;20054;-58
2021/06/17 04:50:24;;;;;;;14.00;7.88;;;;;;;;;;4937576;28;20037;-57
2021/06/17 04:52:49;;;;;;;18.17;9.50;;;;;;;;;;4935145;28;20058;-57
2021/06/17 04:55:17;;;;;;;19.73;9.07;;;;;;;;;;4932012;28;20122;-59
2021/06/17 04:57:42;;;;;;;11.40;8.63;;;;;;;;;;4942473;28;20047;-58
2021/06/17 05:00:13;;;;;;;11.02;8.30;;;;;;;;;;4943230;28;20527;-59
2021/06/17 05:02:41;;;;;;;9.73;7.53;;;;;;;;;;4946805;28;20047;-58
2021/06/17 05:05:08;;;;;;;12.73;8.40;;;;;;;;;;4941471;28;20042;-60
2021/06/17 05:12:46;;;;;;;11.77;7.00;;;;;;;;;;4948639;28;20439;-58
2021/06/17 05:15:12;;;;;;;11.48;6.63;;;;;;;;;;4930515;28;20047;-59
2021/06/17 05:17:39;;;;;;;10.98;6.88;;;;;;;;;;4945883;28;20125;-59
2021/06/17 05:20:05;;;;;;;10.00;6.97;;;;;;;;;;4945853;28;20053;-59
2021/06/17 05:22:31;;;;;;;11.32;7.30;;;;;;;;;;4931312;28;22114;-59
2021/06/17 05:24:56;;;;;;;12.65;6.53;;;;;;;;;;4943541;28;20035;-58
2021/06/17 05:27:21;;;;;;;10.88;7.32;;;;;;;;;;4930629;28;20042;-58
2021/06/17 05:29:47;;;;;;;9.40;6.63;;;;;;;;;;4930692;28;20042;-58
2021/06/17 05:32:14;;;;;;;8.40;6.30;;;;;;;;;;4935133;28;20049;-59
2021/06/17 05:34:40;;;;;;;10.23;6.95;;;;;;;;;;4948452;28;20181;-59
2021/06/17 05:37:08;;;;;;;8.73;6.13;;;;;;;;;;4947642;28;20068;-59
2021/06/17 05:39:34;;;;;;;9.68;6.60;;;;;;;;;;4948279;28;20032;-59
2021/06/17 05:42:00;;;;;;;7.47;5.88;;;;;;;;;;4921967;28;20039;-59
2021/06/17 05:44:27;;;;;;;7.75;5.63;;;;;;;;;;4923950;28;21604;-59
2021/06/17 05:46:56;;;;;;;14.27;5.13;;;;;;;;;;4942769;28;20053;-58
2021/06/17 05:49:24;;;;;;;9.55;5.88;;;;;;;;;;4921768;28;20424;-58
2021/06/17 05:51:52;;;;;;;11.55;5.97;;;;;;;;;;4925383;28;20039;-59
2021/06/17 05:54:18;;;;;;;8.57;5.30;;;;;;;;;;4924483;28;20026;-58
2021/06/17 05:56:46;;;;;;;10.25;5.43;;;;;;;;;;4925743;28;20039;-59
2021/06/17 05:59:17;;;;;;;7.75;5.07;;;;;;;;;;4921265;28;20952;-59
2021/06/17 06:01:43;;;;;;;6.53;5.43;;;;;;;;;;4923522;28;20062;-58
2021/06/17 06:04:10;;;;;;;12.15;5.68;;;;;;;;;;4917996;28;20910;-59
2021/06/17 06:06:39;;;;;;;5.95;4.63;;;;;;;;;;4921658;28;20036;-58
2021/06/17 06:09:08;;;;;;;6.63;5.85;;;;;;;;;;4921641;28;20027;-59
2021/06/17 06:11:34;;;;;;;8.88;4.88;;;;;;;;;;4918373;28;22182;-58
2021/06/17 06:14:02;;;;;;;5.63;4.57;;;;;;;;;;4918924;28;20054;-57
2021/06/17 06:16:30;;;;;;;10.23;5.35;;;;;;;;;;4933938;28;21023;-59
2021/06/17 06:18:56;;;;;;;5.82;4.57;;;;;;;;;;4919741;28;20031;-59
2021/06/17 06:21:22;;;;;;;7.72;4.95;;;;;;;;;;4921990;28;20039;-58
2021/06/17 06:23:48;;;;;;;12.90;5.20;;;;;;;;;;4936198;28;20035;-58
2021/06/17 06:26:13;;;;;;;5.68;4.45;;;;;;;;;;4921536;28;20024;-58
2021/06/17 06:28:42;;;;;;;6.40;3.90;;;;;;;;;;4920287;28;20094;-58
2021/06/17 06:31:10;;;;;;;8.77;5.22;;;;;;;;;;4916657;28;20052;-59
2021/06/17 06:33:38;;;;;;;7.90;4.60;;;;;;;;;;4916789;28;20027;-59
2021/06/17 06:36:04;;;;;;;7.78;5.10;;;;;;;;;;4918273;28;20122;-59
2021/06/17 06:38:32;;;;;;;5.18;3.75;;;;;;;;;;4936939;28;20031;-58
2021/06/17 06:41:02;;;;;;;10.75;4.63;;;;;;;;;;4933859;28;22742;-58
2021/06/17 06:43:28;;;;;;;11.73;4.80;;;;;;;;;;4933225;28;20036;-59
2021/06/17 06:45:56;;;;;;;5.07;4.22;;;;;;;;;;4937922;28;22089;-59
2021/06/17 06:48:24;;;;;;;6.03;4.30;;;;;;;;;;4917783;28;20150;-58
2021/06/17 06:50:50;;;;;;;5.43;4.03;;;;;;;;;;4919097;28;20035;-59
2021/06/17 06:53:17;;;;;;;10.20;4.38;;;;;;;;;;4924043;28;20031;-60
2021/06/17 06:55:44;;;;;;;10.68;4.57;;;;;;;;;;4936563;28;20035;-59
2021/06/17 06:58:12;;;;;;;8.35;4.22;;;;;;;;;;4925095;28;20121;-59
2021/06/17 07:00:40;;;;;;;6.05;3.78;;;;;;;;;;4935080;28;20058;-59
2021/06/17 07:03:08;;;;;;;5.60;3.63;;;;;;;;;;4938071;28;20420;-58
2021/06/17 07:05:36;;;;;;;4.50;3.13;;;;;;;;;;4937955;28;22042;-58
2021/06/17 07:08:10;;;;;;;7.72;3.78;;;;;;;;;;4937330;28;20135;-59
2021/06/17 07:10:40;;;;;;;5.20;3.40;;;;;;;;;;4938161;28;20035;-59
2021/06/17 07:13:08;;;;;;;7.22;3.33;;;;;;;;;;4934833;28;20624;-60
2021/06/17 07:15:36;;;;;;;4.32;3.42;;;;;;;;;;4921826;28;20057;-58
2021/06/17 07:18:04;;;;;;;4.13;3.38;;;;;;;;;;4939473;28;20038;-58
2021/06/17 07:20:32;;;;;;;5.28;3.53;;;;;;;;;;4938505;28;20471;-61
2021/06/17 07:22:58;;;;;;;3.67;3.15;;;;;;;;;;4924924;28;20045;-59
2021/06/17 07:25:24;;;;;;;4.70;3.30;;;;;;;;;;4939833;28;20050;-59
2021/06/17 07:27:52;;;;;;;5.35;3.10;;;;;;;;;;4936650;28;20019;-59
2021/06/17 07:30:18;;;;;;;4.97;3.28;;;;;;;;;;4937102;28;20101;-59
2021/06/17 07:32:49;;;;;;;4.53;3.05;;;;;;;;;;4923092;28;20030;-59
2021/06/17 07:35:17;;;;;;;3.45;2.70;;;;;;;;;;4940132;28;22073;-59
2021/06/17 07:37:48;;;;;;;5.18;2.75;;;;;;;;;;4946383;28;20035;-58
2021/06/17 07:40:14;;;;;;;3.03;2.67;;;;;;;;;;4924603;28;20066;-58
2021/06/17 07:42:39;;;;;;;8.27;2.92;;;;;;;;;;4920134;28;20034;-59
2021/06/17 07:45:07;;;;;;;3.35;2.67;;;;;;;;;;4935320;28;20189;-58
2021/06/17 07:47:33;;;;;;;5.45;2.83;;;;;;;;;;4935221;28;20030;-59
2021/06/17 07:49:58;;;;;;;4.43;2.70;;;;;;;;;;4938104;28;20158;-59
2021/06/17 07:52:29;;;;;;;4.85;2.63;;;;;;;;;;4937105;28;20019;-60
2021/06/17 07:54:54;;;;;;;3.08;2.75;;;;;;;;;;4929022;28;20034;-59
2021/06/17 07:57:22;;;;;;;4.32;2.88;;;;;;;;;;4937335;28;20047;-60
2021/06/17 07:59:50;;;;;;;6.28;2.80;;;;;;;;;;4919442;28;20039;-59
2021/06/17 08:02:29;;;;;;;3.35;2.83;;;;;;;;;;4908232;28;20053;-59
2021/06/17 08:04:54;;;;;;;6.00;2.35;;;;;;;;;;4934115;28;20042;-59
2021/06/17 08:07:20;;;;;;;6.85;3.00;;;;;;;;;;4936504;28;20069;-60
2021/06/17 08:09:46;;;;;;;4.85;2.75;;;;;;;;;;4945554;28;20037;-59
2021/06/17 08:12:11;;;;;;;4.63;2.73;;;;;;;;;;4927003;28;20133;-59
2021/06/17 08:14:36;;;;;;;3.05;2.47;;;;;;;;;;4943450;28;20310;-61
2021/06/17 08:17:02;;;;;;;3.15;2.58;;;;;;;;;;4941986;28;20059;-60
2021/06/17 08:19:31;;;;;;;2.03;1.83;;;;;;;;;;4925472;28;20075;-59
2021/06/17 08:22:03;;;;;;;2.50;2.10;;;;;;;;;;4943067;28;20969;-59
2021/06/17 08:24:32;;;;;;;4.63;2.40;;;;;;;;;;4942319;28;20813;-59
2021/06/17 08:26:59;;;;;;;4.07;2.80;;;;;;;;;;4943051;28;20039;-58
2021/06/17 08:29:27;;;;;;;7.00;2.65;;;;;;;;;;4943209;28;22006;-61
2021/06/17 08:31:58;;;;;;;4.10;1.90;;;;;;;;;;4944176;28;22039;-59
2021/06/17 08:34:26;;;;;;;5.82;2.65;;;;;;;;;;4943989;28;20035;-59
2021/06/17 08:36:54;;;;;;;4.15;2.10;;;;;;;;;;4926039;28;20180;-59
2021/06/17 08:39:22;;;;;;;6.95;2.50;;;;;;;;;;4944971;28;20026;-59
2021/06/17 08:41:53;;;;;;;3.00;2.40;;;;;;;;;;4927431;28;20153;-59
2021/06/17 08:44:21;;;;;;;5.07;2.03;;;;;;;;;;4944039;28;20908;-59
2021/06/17 08:46:48;;;;;;;3.17;2.08;;;;;;;;;;4927601;28;20039;-59
2021/06/17 08:49:23;;;;;;;9.68;2.17;;;;;;;;;;4942440;28;20356;-58
2021/06/17 08:51:54;;;;;;;2.65;2.08;;;;;;;;;;4944916;28;20023;-60
2021/06/17 08:54:20;;;;;;;4.72;2.45;;;;;;;;;;4942694;28;20027;-59
2021/06/17 08:56:48;;;;;;;4.38;2.20;;;;;;;;;;4930781;28;20054;-58
2021/06/17 08:59:17;;;;;;;4.38;2.00;;;;;;;;;;4943085;28;21997;-59
2021/06/17 09:01:55;;;;;;;4.43;1.83;;;;;;;;;;4942936;28;20113;-60
2021/06/17 09:04:26;;;;;;;2.85;2.05;;;;;;;;;;4927302;28;20066;-58
2021/06/17 09:07:13;;;;;;;2.75;1.90;;;;;;;;;;4943651;28;20031;-59
2021/06/17 09:09:44;;;;;;;4.22;2.00;;;;;;;;;;4908011;28;20118;-58
2021/06/17 09:12:11;;;;;;;5.60;1.73;;;;;;;;;;4942034;28;20499;-60
2021/06/17 09:14:37;;;;;;;5.00;1.60;;;;;;;;;;4943159;28;20034;-59
2021/06/17 09:17:07;;;;;;;4.03;1.80;;;;;;;;;;4940182;28;20027;-59
2021/06/17 09:19:33;;;;;;;4.10;1.95;;;;;;;;;;4927155;28;20037;-60
2021/06/17 09:22:01;;;;;;;4.38;2.08;;;;;;;;;;4944411;28;20057;-58
2021/06/17 09:24:30;;;;;;;3.38;1.95;;;;;;;;;;4944308;28;20131;-59
2021/06/17 09:27:18;;;;;;;1.73;1.50;;;;;;;;;;4944376;28;20035;-60
2021/06/17 09:29:45;;;;;;;1.92;1.77;;;;;;;;;;4942161;28;20698;-58
2021/06/17 09:32:22;;;;;;;3.10;1.50;;;;;;;;;;4943079;28;20047;-58
2021/06/17 09:34:50;;;;;;;4.70;1.60;;;;;;;;;;4944684;28;20094;-60
2021/06/17 09:37:30;;;;;;;4.55;1.50;;;;;;;;;;4926881;28;20614;-58
2021/06/17 09:39:55;;;;;;;2.38;1.60;;;;;;;;;;4942125;28;20049;-59
2021/06/17 09:42:27;;;;;;;5.07;1.90;;;;;;;;;;4943665;28;20035;-60
2021/06/17 09:44:59;;;;;;;1.75;1.65;;;;;;;;;;4930892;28;20614;-60
2021/06/17 09:47:31;;;;;;;2.45;1.83;;;;;;;;;;4944107;28;20061;-58
2021/06/17 09:50:00;;;;;;;1.70;1.53;;;;;;;;;;4945494;28;20027;-59
2021/06/17 09:52:41;;;;;;;1.80;1.70;;;;;;;;;;4947704;28;20790;-59
2021/06/17 09:55:09;;;;;;;2.10;1.63;;;;;;;;;;4947211;28;20046;-59
2021/06/17 09:57:36;;;;;;;3.50;1.55;;;;;;;;;;4930461;28;20064;-59
2021/06/17 10:00:08;;;;;;;2.63;1.38;;;;;;;;;;4943254;28;20069;-59
2021/06/17 10:02:35;;;;;;;2.75;1.55;;;;;;;;;;4944915;28;20047;-59
2021/06/17 10:05:06;;;;;;;;;;;;;;;;;;4947785;28;20038;-58
2021/06/17 10:07:34;;;;;;;5.13;1.60;;;;;;;;;;4930581;28;19919;-59
2021/06/17 10:09:59;;;;;;;2.22;1.30;;;;;;;;;;4934124;28;20030;-58
2021/06/17 10:12:28;;;;;;;1.17;1.13;;;;;;;;;;4946175;28;20562;-58
2021/06/17 10:14:53;;;;;;;6.70;1.38;;;;;;;;;;4945269;28;20085;-58
2021/06/17 10:17:18;;;;;;;1.55;1.35;;;;;;;;;;4944048;28;20027;-58
2021/06/17 10:19:47;;;;;;;1.35;1.23;;;;;;;;;;4944267;28;20538;-59
2021/06/17 10:22:12;;;;;;;2.80;1.30;;;;;;;;;;4943810;28;20122;-59
2021/06/17 10:24:40;;;;;;;7.13;1.42;;;;;;;;;;4933640;28;20074;-59
2021/06/17 10:27:07;;;;;;;2.30;1.70;;;;;;;;;;4945238;28;20085;-60
2021/06/17 10:29:36;;;;;;;11.70;1.90;;;;;;;;;;4946135;28;20042;-59
2021/06/17 10:32:03;;;;;;;6.10;1.58;;;;;;;;;;4943978;28;20913;-59
2021/06/17 10:34:32;;;;;;;4.53;1.70;;;;;;;;;;4946376;28;20035;-59
2021/06/17 10:37:15;;;;;;;2.50;1.60;;;;;;;;;;4943700;28;20038;-60
2021/06/17 10:39:41;;;;;;;2.83;1.58;;;;;;;;;;4935731;28;20450;-60
2021/06/17 10:42:06;;;;;;;3.13;1.37;;;;;;;;;;4927914;28;20034;-59
2021/06/17 10:44:47;;;;;;;4.85;1.48;;;;;;;;;;4944442;28;20302;-59
2021/06/17 10:47:32;;;;;;;4.35;1.58;;;;;;;;;;4933394;28;20039;-59
2021/06/17 10:49:59;;;;;;;2.20;1.80;;;;;;;;;;4946487;28;20846;-60
2021/06/17 10:52:28;;;;;;;2.55;1.90;;;;;;;;;;4944582;28;20082;-59
2021/06/17 10:55:06;;;;;;;6.97;1.80;;;;;;;;;;4943834;28;20037;-59
2021/06/17 10:57:48;;;;;;;5.88;1.90;;;;;;;;;;4946514;28;20050;-59
2021/06/17 11:00:28;;;;;;;1.20;1.10;;;;;;;;;;4926578;28;20049;-59
2021/06/17 11:03:03;;;;;;;4.18;1.27;;;;;;;;;;4941746;28;20094;-58
2021/06/17 11:05:28;;;;;;;3.28;1.40;;;;;;;;;;4944496;28;20039;-58
2021/06/17 11:08:13;;;;;;;3.30;1.50;;;;;;;;;;4945171;28;20089;-58
2021/06/17 11:10:46;;;;;;;1.70;1.35;;;;;;;;;;4942135;28;20047;-59
2021/06/17 11:13:25;;;;;;;3.50;1.80;;;;;;;;;;4945037;28;20042;-59
2021/06/17 11:15:51;;;;;;;3.58;1.25;;;;;;;;;;4944341;28;21068;-58
2021/06/17 11:21:34;;;;;;;2.45;1.40;;;;;;;;;;4945300;28;20125;-59
2021/06/17 11:24:13;;;;;;;5.28;1.48;;;;;;;;;;4943299;28;20125;-60
2021/06/17 11:26:45;;;;;;;4.28;1.15;;;;;;;;;;4946382;28;20740;-59
2021/06/17 11:29:18;;;;;;;2.38;1.33;;;;;;;;;;4943755;28;22321;-59
2021/06/17 11:31:45;;;;;;;4.43;1.27;;;;;;;;;;4944306;28;20134;-58
2021/06/17 11:34:33;;;;;;;3.10;1.40;;;;;;;;;;4946360;28;20015;-60
2021/06/17 11:37:11;;;;;;;3.63;1.60;;;;;;;;;;4945317;28;20835;-58
2021/06/17 11:39:42;;;;;;;4.33;1.47;;;;;;;;;;4942578;28;20031;-59
2021/06/17 11:42:14;;;;;;;4.15;1.45;;;;;;;;;;4945883;28;20043;-59
2021/06/17 11:44:40;;;;;;;4.13;1.35;;;;;;;;;;4927753;28;20058;-58
2021/06/17 11:47:07;;;;;;;2.63;1.20;;;;;;;;;;4945425;28;20030;-60
2021/06/17 11:49:37;;;;;;;3.22;1.15;;;;;;;;;;4946416;28;20077;-58
2021/06/17 11:52:14;;;;;;;2.25;1.30;;;;;;;;;;4945333;28;20027;-59
2021/06/17 11:54:43;;;;;;;2.05;1.50;;;;;;;;;;4945458;28;20138;-60
2021/06/17 11:57:11;;;;;;;2.05;1.20;;;;;;;;;;4934023;28;20391;-59
2021/06/17 11:59:41;;;;;;;3.20;1.20;;;;;;;;;;4944087;28;20043;-59
2021/06/17 12:02:30;;;;;;;1.75;1.25;;;;;;;;;;4942649;28;20046;-60
2021/06/17 12:05:02;;;;;;;3.42;1.30;;;;;;;;;;4928378;28;20154;-59
2021/06/17 12:07:35;;;;;;;4.50;1.60;;;;;;;;;;4944797;28;20296;-59
2021/06/17 12:10:10;;;;;;;2.97;1.33;;;;;;;;;;4944349;28;20165;-59
2021/06/17 12:12:40;;;;;;;1.08;0.98;;;;;;;;;;4944727;28;20912;-59
2021/06/17 12:15:13;;;;;;;1.85;1.35;;;;;;;;;;4943113;28;20162;-58
2021/06/17 12:17:43;;;;;;;3.22;1.30;;;;;;;;;;4939049;28;20023;-59
2021/06/17 12:20:14;;;;;;;0.90;0.90;;;;;;;;;;4942983;28;20035;-59
2021/06/17 12:22:45;;;;;;;2.13;1.38;;;;;;;;;;4944080;28;20038;-59
2021/06/17 12:25:16;;;;;;;2.05;1.10;;;;;;;;;;4927622;28;20107;-59
2021/06/17 12:27:45;;;;;;;1.98;1.10;;;;;;;;;;4933408;28;20035;-60
2021/06/17 12:30:27;;;;;;;7.30;1.13;;;;;;;;;;4943021;28;20876;-59
2021/06/17 12:33:03;;;;;;;2.25;1.05;;;;;;;;;;4943572;28;20133;-59
2021/06/17 12:35:35;;;;;;;1.30;1.20;;;;;;;;;;4944803;28;20026;-60
2021/06/17 12:38:03;;;;;;;1.27;1.15;;;;;;;;;;4945596;28;20045;-59
2021/06/17 12:40:43;;;;;;;1.25;1.15;;;;;;;;;;4944632;28;20023;-59
2021/06/17 12:43:16;;;;;;;2.47;1.35;;;;;;;;;;4909687;28;20191;-59
2021/06/17 12:46:01;;;;;;;2.03;1.13;;;;;;;;;;4945159;28;20054;-59
2021/06/17 12:49:27;;;;;;;1.45;1.35;;;;;;;;;;4942938;28;20462;-59
2021/06/17 12:54:10;;;;;;;4.15;0.95;;;;;;;;;;4926548;28;20034;-58
2021/06/17 12:56:50;;;;;;;1.20;1.00;;;;;;;;;;4944438;28;20046;-60
2021/06/17 12:59:31;;;;;;;3.38;1.50;;;;;;;;;;4944463;28;20098;-59
2021/06/17 13:02:04;;;;;;;6.13;1.00;;;;;;;;;;4940852;28;20035;-60
2021/06/17 13:04:29;;;;;;;3.45;1.60;;;;;;;;;;4942246;28;20054;-60
2021/06/17 13:07:02;;;;;;;1.10;1.00;;;;;;;;;;4941314;28;20180;-58
2021/06/17 13:09:31;;;;;;;3.83;1.25;;;;;;;;;;4942531;28;20127;-58
2021/06/17 13:12:03;;;;;;;2.53;1.00;;;;;;;;;;4944064;28;20042;-59
2021/06/17 13:14:28;;;;;;;;;;;;;;;;;;4945123;28;20118;-59
2021/06/17 13:17:05;;;;;;;1.17;1.08;;;;;;;;;;4943215;28;19918;-59
2021/06/17 13:19:33;;;;;;;1.67;1.10;;;;;;;;;;4925754;28;20031;-60
2021/06/17 13:22:00;;;;;;;2.08;1.20;;;;;;;;;;4943572;28;20067;-59
2021/06/17 13:24:25;;;;;;;1.10;1.00;;;;;;;;;;4946820;28;20041;-59
2021/06/17 13:27:09;;;;;;;1.45;1.35;;;;;;;;;;4930087;28;20034;-59
2021/06/17 13:29:59;;;;;;;1.00;1.00;;;;;;;;;;4929395;28;20046;-60
2021/06/17 13:32:28;;;;;;;3.50;1.08;;;;;;;;;;4946742;28;20090;-58
2021/06/17 13:34:55;;;;;;;1.33;1.15;;;;;;;;;;4929234;28;20030;-59
2021/06/17 13:37:21;;;;;;;2.70;1.20;;;;;;;;;;4945289;28;20167;-59
2021/06/17 13:39:50;;;;;;;1.63;1.00;;;;;;;;;;4945637;28;20037;-59
2021/06/17 13:42:18;;;;;;;3.17;1.17;;;;;;;;;;4945871;28;20046;-60
2021/06/17 13:44:50;;;;;;;1.73;0.98;;;;;;;;;;4930880;28;20158;-58
2021/06/17 13:47:23;;;;;;;4.45;1.30;;;;;;;;;;4944135;28;20034;-59
2021/06/17 13:49:55;;;;;;;8.18;1.42;;;;;;;;;;4945373;28;20038;-59
2021/06/17 13:52:24;;;;;;;4.63;1.30;;;;;;;;;;4947261;28;20035;-60
2021/06/17 13:54:59;;;;;;;3.80;1.25;;;;;;;;;;4945116;28;20035;-56
2021/06/17 13:57:25;;;;;;;3.70;1.35;;;;;;;;;;4930357;28;20105;-58
2021/06/17 13:59:50;;;;;;;2.42;1.25;;;;;;;;;;4944228;28;20038;-58
2021/06/17 14:02:18;;;;;;;5.18;1.33;;;;;;;;;;4944957;28;20133;-59
2021/06/17 14:04:46;;;;;;;1.63;1.33;;;;;;;;;;4945453;28;20045;-60
2021/06/17 14:07:11;;;;;;;2.65;1.20;;;;;;;;;;4946263;28;20031;-59
2021/06/17 14:09:42;;;;;;;1.40;1.17;;;;;;;;;;4943020;28;20070;-59
2021/06/17 14:12:08;;;;;;;3.25;1.67;;;;;;;;;;4934717;28;20042;-60
2021/06/17 14:14:34;;;;;;;2.53;1.50;;;;;;;;;;4945653;28;20478;-59
2021/06/17 14:17:02;;;;;;;2.55;1.23;;;;;;;;;;4946347;28;20031;-60
2021/06/17 14:19:27;;;;;;;1.80;1.50;;;;;;;;;;4945535;28;20077;-59
2021/06/17 14:21:55;;;;;;;2.42;2.03;;;;;;;;;;4944938;28;20049;-60
2021/06/17 14:24:20;;;;;;;8.63;2.00;;;;;;;;;;4946747;28;20055;-60
2021/06/17 14:26:47;;;;;;;6.38;1.73;;;;;;;;;;4929248;28;20162;-59
2021/06/17 14:29:15;;;;;;;1.95;1.83;;;;;;;;;;4945923;28;20062;-59
2021/06/17 14:31:43;;;;;;;5.57;2.00;;;;;;;;;;4943376;28;20101;-60
2021/06/17 14:34:09;;;;;;;2.92;1.98;;;;;;;;;;4945432;28;20042;-59
2021/06/17 14:36:37;;;;;;;3.65;2.08;;;;;;;;;;4934897;28;20030;-59
2021/06/17 14:39:04;;;;;;;4.30;2.50;;;;;;;;;;4934734;28;20030;-59
2021/06/17 14:41:30;;;;;;;6.80;2.70;;;;;;;;;;4934031;28;20046;-58
2021/06/17 14:44:00;;;;;;;6.32;3.03;;;;;;;;;;4945235;28;20406;-59
2021/06/17 14:46:26;;;;;;;7.75;2.40;;;;;;;;;;4944400;28;20046;-59
2021/06/17 14:48:54;;;;;;;4.25;2.90;;;;;;;;;;4892300;28;20404;-57
2021/06/17 14:51:22;;;;;;;10.13;2.50;;;;;;;;;;4945449;28;20507;-57
2021/06/17 14:53:51;;;;;;;2.35;2.13;;;;;;;;;;4942717;28;20172;-58
2021/06/17 14:56:17;;;;;;;3.40;2.30;;;;;;;;;;4929078;28;20023;-58
2021/06/17 14:58:42;;;;;;;11.35;2.55;;;;;;;;;;4944351;28;20105;-58
2021/06/17 15:01:10;;;;;;;3.85;2.30;;;;;;;;;;4944466;28;21163;-59
2021/06/17 15:03:41;;;;;;;3.30;2.47;;;;;;;;;;4941583;28;20031;-59
2021/06/17 15:06:07;;;;;;;2.78;2.47;;;;;;;;;;4942817;28;20112;-57
2021/06/17 15:08:36;;;;;;;3.65;2.08;;;;;;;;;;4932245;28;20035;-58
2021/06/17 15:11:07;;;;;;;4.68;2.55;;;;;;;;;;4917187;28;20042;-56
2021/06/17 15:13:38;;;;;;;9.90;2.63;;;;;;;;;;4944115;28;21358;-59
2021/06/17 15:16:05;;;;;;;6.15;2.20;;;;;;;;;;4944203;28;20038;-58